Time;durP1;ratioP1;P1;durP2;ratioP2;P2;SDS_P1;SDS_P2;PMS_P1;PMS_P2;Temp;Humidity;BMP_temperature;BMP_pressure;BME280_temperature;BME280_humidity;BME280_pressure;Samples;Min_cycle;Max_cycle;Signal;HPM_P1;HPM_P2
2022/01/13 00:01:35;;;;;;;5.80;4.50;;;4.20;99.90;;;;;;5028708;28;20247;-68
2022/01/13 00:04:03;;;;;;;4.88;3.60;;;4.20;99.90;;;;;;5028815;28;20233;-67
2022/01/13 00:06:32;;;;;;;5.15;3.60;;;4.20;99.90;;;;;;5029473;28;20359;-67
2022/01/13 00:09:01;;;;;;;5.32;3.90;;;4.20;99.90;;;;;;5025370;28;20210;-67
2022/01/13 00:11:29;;;;;;;8.20;5.88;;;4.20;99.90;;;;;;5025273;28;20189;-67
2022/01/13 00:14:21;;;;;;;5.65;4.82;;;4.20;99.90;;;;;;5028692;28;20221;-67
2022/01/13 00:17:12;;;;;;;6.53;4.45;;;4.20;99.90;;;;;;5019148;28;20617;-66
2022/01/13 00:19:55;;;;;;;10.75;6.28;;;4.20;99.90;;;;;;5025664;28;20185;-66
2022/01/13 00:22:43;;;;;;;4.63;3.63;;;4.20;99.90;;;;;;5028807;28;20224;-67
2022/01/13 00:25:15;;;;;;;6.00;4.60;;;4.20;99.90;;;;;;5014361;28;20193;-66
2022/01/13 00:27:49;;;;;;;5.57;4.15;;;4.30;99.90;;;;;;5017057;28;20236;-68
2022/01/13 00:30:18;;;;;;;5.40;3.97;;;4.20;99.90;;;;;;5029512;28;20282;-67
2022/01/13 00:32:46;;;;;;;6.07;4.95;;;4.20;99.90;;;;;;5027024;28;20228;-68
2022/01/13 00:35:15;;;;;;;4.50;3.70;;;4.20;99.90;;;;;;5028237;28;20254;-66
2022/01/13 00:37:43;;;;;;;4.47;3.60;;;4.20;99.90;;;;;;5028172;28;20233;-67
2022/01/13 00:40:13;;;;;;;6.07;3.80;;;4.20;99.90;;;;;;5026487;28;20197;-66
2022/01/13 00:42:42;;;;;;;5.03;3.40;;;4.20;99.90;;;;;;5025384;28;20221;-67
2022/01/13 00:45:14;;;;;;;8.60;5.82;;;4.20;99.90;;;;;;5028736;28;20734;-67
2022/01/13 00:47:42;;;;;;;5.93;4.25;;;4.20;99.90;;;;;;5020669;28;20235;-66
2022/01/13 00:50:11;;;;;;;4.38;3.80;;;4.20;99.90;;;;;;5027428;28;20707;-66
2022/01/13 00:52:39;;;;;;;5.15;4.43;;;4.20;99.90;;;;;;5027923;28;20221;-67
2022/01/13 00:55:11;;;;;;;4.38;3.90;;;4.20;99.90;;;;;;5028312;28;20197;-66
2022/01/13 00:57:41;;;;;;;4.18;3.67;;;4.20;99.90;;;;;;5018415;28;20233;-67
2022/01/13 01:00:10;;;;;;;5.30;3.70;;;4.20;99.90;;;;;;5028767;28;20699;-69
2022/01/13 01:02:38;;;;;;;4.60;4.03;;;4.20;99.90;;;;;;5020356;28;20259;-67
2022/01/13 01:05:07;;;;;;;4.15;3.60;;;4.20;99.90;;;;;;5028641;28;20259;-66
2022/01/13 01:07:36;;;;;;;5.80;3.95;;;4.20;99.90;;;;;;5053366;28;20217;-66
2022/01/13 01:10:05;;;;;;;6.00;3.78;;;4.20;99.90;;;;;;5029088;28;20221;-66
2022/01/13 01:12:37;;;;;;;5.70;4.45;;;4.20;99.90;;;;;;5027856;28;20273;-66
2022/01/13 01:15:08;;;;;;;5.93;4.15;;;4.20;99.90;;;;;;5027239;28;20213;-67
2022/01/13 01:17:43;;;;;;;6.10;4.45;;;4.20;99.90;;;;;;5026000;28;20236;-65
2022/01/13 01:20:13;;;;;;;5.38;4.20;;;4.20;99.90;;;;;;5021473;28;20185;-66
2022/01/13 01:25:45;;;;;;;5.80;3.58;;;4.20;99.90;;;;;;5027963;28;20197;-67
2022/01/13 01:28:20;;;;;;;4.70;4.20;;;4.20;99.90;;;;;;5020903;28;20279;-68
2022/01/13 01:30:54;;;;;;;6.80;4.63;;;4.20;99.90;;;;;;5026687;28;20238;-68
2022/01/13 01:33:22;;;;;;;4.57;3.33;;;4.20;99.90;;;;;;5014331;28;20290;-66
2022/01/13 01:35:50;;;;;;;6.60;3.90;;;4.20;99.90;;;;;;5027509;28;20244;-68
2022/01/13 01:38:19;;;;;;;4.95;4.07;;;4.20;99.90;;;;;;5027645;28;20216;-66
2022/01/13 01:40:47;;;;;;;5.10;3.88;;;4.20;99.90;;;;;;5024170;28;20186;-67
2022/01/13 01:43:16;;;;;;;5.63;3.95;;;4.20;99.90;;;;;;5027399;28;20287;-66
2022/01/13 01:45:48;;;;;;;5.32;4.43;;;4.20;99.90;;;;;;5027018;28;20189;-67
2022/01/13 01:48:20;;;;;;;6.80;4.25;;;4.20;99.90;;;;;;5021314;28;20224;-68
2022/01/13 01:50:55;;;;;;;7.32;4.40;;;4.20;99.90;;;;;;5027275;28;20217;-66
2022/01/13 01:53:23;;;;;;;7.47;3.55;;;4.20;99.90;;;;;;5021853;28;20220;-66
2022/01/13 01:55:55;;;;;;;5.45;4.70;;;4.20;99.90;;;;;;5025115;28;20224;-67
2022/01/13 01:58:25;;;;;;;5.20;3.42;;;4.20;99.90;;;;;;5026865;28;20225;-67
2022/01/13 02:00:54;;;;;;;6.47;3.85;;;4.20;99.90;;;;;;5025376;28;20636;-67
2022/01/13 02:03:26;;;;;;;6.13;4.13;;;4.20;99.90;;;;;;5021810;28;20229;-66
2022/01/13 02:05:56;;;;;;;4.50;3.80;;;4.20;99.90;;;;;;5027264;28;20626;-66
2022/01/13 02:08:24;;;;;;;6.40;5.07;;;4.20;99.90;;;;;;5027059;28;20217;-67
2022/01/13 02:10:52;;;;;;;5.50;3.67;;;4.20;99.90;;;;;;5020121;28;20274;-65
2022/01/13 02:13:23;;;;;;;4.22;3.75;;;4.20;99.90;;;;;;5027121;28;20228;-66
2022/01/13 02:16:02;;;;;;;6.28;4.15;;;4.20;99.90;;;;;;5026110;28;20225;-66
2022/01/13 02:18:33;;;;;;;5.97;4.15;;;4.20;99.90;;;;;;5027259;28;20709;-65
2022/01/13 02:21:04;;;;;;;4.97;3.95;;;4.20;99.90;;;;;;5027438;28;20218;-67
2022/01/13 02:23:35;;;;;;;8.43;5.47;;;4.20;99.90;;;;;;5027036;28;20221;-68
2022/01/13 02:26:05;;;;;;;5.28;4.00;;;4.20;99.90;;;;;;5020561;28;20291;-67
2022/01/13 02:28:34;;;;;;;6.20;4.90;;;4.20;99.90;;;;;;5026855;28;20658;-68
2022/01/13 02:31:03;;;;;;;6.57;3.97;;;4.20;99.90;;;;;;5024131;28;20220;-66
2022/01/13 02:33:31;;;;;;;5.22;4.10;;;4.20;99.90;;;;;;5022929;28;20638;-68
2022/01/13 02:35:59;;;;;;;6.70;4.20;;;4.20;99.90;;;;;;5026983;28;20702;-67
2022/01/13 02:38:29;;;;;;;5.53;3.92;;;4.20;99.90;;;;;;5026748;28;20276;-66
2022/01/13 02:40:58;;;;;;;5.53;4.47;;;4.20;99.90;;;;;;5022776;28;20842;-67
2022/01/13 02:43:29;;;;;;;6.60;4.22;;;4.20;99.90;;;;;;5029141;28;20254;-68
2022/01/13 02:46:17;;;;;;;4.75;3.83;;;4.20;99.90;;;;;;5027731;28;20296;-68
2022/01/13 02:48:48;;;;;;;7.82;4.05;;;4.20;99.90;;;;;;5020445;28;20252;-67
2022/01/13 02:51:16;;;;;;;4.80;4.15;;;4.20;99.90;;;;;;5030528;28;20691;-68
2022/01/13 02:53:45;;;;;;;6.60;4.55;;;4.20;99.90;;;;;;5030381;28;20223;-67
2022/01/13 02:56:13;;;;;;;4.65;3.70;;;4.20;99.90;;;;;;5024874;28;20213;-66
2022/01/13 02:58:42;;;;;;;7.07;4.03;;;4.20;99.90;;;;;;5030352;28;20799;-66
2022/01/13 03:01:10;;;;;;;5.10;4.47;;;4.20;99.90;;;;;;5029303;28;20225;-66
2022/01/13 03:03:39;;;;;;;5.00;4.25;;;4.20;99.90;;;;;;5030290;28;20228;-67
2022/01/13 03:06:08;;;;;;;8.63;5.30;;;4.20;99.90;;;;;;5030244;28;20584;-68
2022/01/13 03:08:37;;;;;;;6.35;4.20;;;4.20;99.90;;;;;;5030132;28;20275;-67
2022/01/13 03:11:06;;;;;;;7.88;4.95;;;4.20;99.90;;;;;;5015610;28;20638;-69
2022/01/13 03:13:34;;;;;;;5.85;4.60;;;4.20;99.90;;;;;;5030188;28;20224;-68
2022/01/13 03:16:06;;;;;;;6.88;4.53;;;4.20;99.90;;;;;;5026990;28;20259;-67
2022/01/13 03:18:35;;;;;;;6.32;4.78;;;4.20;99.90;;;;;;5026376;28;20634;-68
2022/01/13 03:21:04;;;;;;;6.20;4.47;;;4.20;99.90;;;;;;5030389;28;20280;-68
2022/01/13 03:23:32;;;;;;;7.10;4.15;;;4.20;99.90;;;;;;5028397;28;20602;-67
2022/01/13 03:26:00;;;;;;;6.13;4.03;;;4.20;99.90;;;;;;5021667;28;20220;-66
2022/01/13 03:28:31;;;;;;;5.68;3.63;;;4.20;99.90;;;;;;5029821;28;20279;-68
2022/01/13 03:31:01;;;;;;;5.70;4.22;;;4.20;99.90;;;;;;5025886;28;20237;-66
2022/01/13 03:33:29;;;;;;;5.90;4.20;;;4.20;99.90;;;;;;5017008;28;20225;-67
2022/01/13 03:35:58;;;;;;;6.95;5.40;;;4.20;99.90;;;;;;5029807;28;20630;-67
2022/01/13 03:38:27;;;;;;;7.60;4.85;;;4.20;99.90;;;;;;5029246;28;20710;-68
2022/01/13 03:40:56;;;;;;;7.47;4.57;;;4.20;99.90;;;;;;5026111;28;20216;-67
2022/01/13 03:43:24;;;;;;;6.90;4.40;;;4.20;99.90;;;;;;5024358;28;20621;-69
2022/01/13 03:45:54;;;;;;;10.95;5.75;;;4.20;99.90;;;;;;5028060;28;20219;-68
2022/01/13 03:48:23;;;;;;;8.68;5.43;;;4.20;99.90;;;;;;5029404;28;20236;-68
2022/01/13 03:50:51;;;;;;;7.47;5.05;;;4.20;99.90;;;;;;5029428;28;20693;-68
2022/01/13 03:54:26;;;;;;;6.45;4.47;;;4.20;99.90;;;;;;5029156;28;20584;-68
2022/01/13 03:57:48;;;;;;;8.45;4.05;;;4.20;99.90;;;;;;5027651;28;20290;-67
2022/01/13 04:01:02;;;;;;;5.53;4.45;;;4.20;99.90;;;;;;5023436;28;20231;-68
2022/01/13 04:03:30;;;;;;;6.15;4.75;;;4.20;99.90;;;;;;5019828;28;21039;-68
2022/01/13 04:06:08;;;;;;;6.55;5.10;;;4.20;99.90;;;;;;5028489;28;20259;-66
2022/01/13 04:08:36;;;;;;;6.90;4.47;;;4.20;99.90;;;;;;5028811;28;20768;-67
2022/01/13 04:11:18;;;;;;;5.78;4.43;;;4.20;99.90;;;;;;5027705;28;20543;-67
2022/01/13 04:13:55;;;;;;;6.00;3.65;;;4.20;99.90;;;;;;5028844;28;20331;-67
2022/01/13 04:16:27;;;;;;;6.53;4.13;;;4.20;99.90;;;;;;5022503;28;20640;-66
2022/01/13 04:19:01;;;;;;;4.47;3.42;;;4.20;99.90;;;;;;5028604;28;20223;-67
2022/01/13 04:21:30;;;;;;;4.80;3.70;;;4.20;99.90;;;;;;5029087;28;20189;-68
2022/01/13 04:23:58;;;;;;;5.90;4.60;;;4.20;99.90;;;;;;5028237;28;20221;-69
2022/01/13 04:26:30;;;;;;;5.45;3.90;;;4.20;99.90;;;;;;5026229;28;20213;-68
2022/01/13 04:29:15;;;;;;;6.45;4.45;;;4.20;99.90;;;;;;5028633;28;20227;-67
2022/01/13 04:31:46;;;;;;;8.15;3.90;;;4.20;99.90;;;;;;5020373;28;20279;-68
2022/01/13 04:34:15;;;;;;;6.35;4.07;;;4.20;99.90;;;;;;5028877;28;20201;-65
2022/01/13 04:36:43;;;;;;;4.18;3.35;;;4.20;99.90;;;;;;5028193;28;20224;-67
2022/01/13 04:39:14;;;;;;;7.18;3.72;;;4.20;99.90;;;;;;5028785;28;20817;-67
2022/01/13 04:41:44;;;;;;;5.88;3.90;;;4.20;99.90;;;;;;5027822;28;20209;-66
2022/01/13 04:44:15;;;;;;;7.35;4.20;;;4.20;99.90;;;;;;5028649;28;20702;-66
2022/01/13 04:46:46;;;;;;;5.20;4.22;;;4.20;99.90;;;;;;5020333;28;20218;-67
2022/01/13 04:49:16;;;;;;;5.30;4.00;;;4.20;99.90;;;;;;5027154;28;20652;-67
2022/01/13 04:51:44;;;;;;;4.13;3.53;;;4.20;99.90;;;;;;5026563;28;20209;-67
2022/01/13 04:54:12;;;;;;;5.63;3.92;;;4.20;99.90;;;;;;5028448;28;20201;-66
2022/01/13 04:56:44;;;;;;;5.95;4.00;;;4.20;99.90;;;;;;5027454;28;20224;-67
2022/01/13 04:59:13;;;;;;;6.32;4.53;;;4.20;99.90;;;;;;5027910;28;20217;-68
2022/01/13 05:01:41;;;;;;;4.15;3.33;;;4.20;99.90;;;;;;5020653;28;20202;-66
2022/01/13 05:04:11;;;;;;;4.70;3.83;;;4.20;99.90;;;;;;5027659;28;20224;-67
2022/01/13 05:06:39;;;;;;;4.90;3.45;;;4.20;99.90;;;;;;5028086;28;20752;-68
2022/01/13 05:09:07;;;;;;;5.85;4.15;;;4.20;99.90;;;;;;5020637;28;20723;-70
2022/01/13 05:11:35;;;;;;;6.35;4.55;;;4.20;99.90;;;;;;5025085;28;20208;-67
2022/01/13 05:14:03;;;;;;;4.85;3.72;;;4.20;99.90;;;;;;5026950;28;20258;-66
2022/01/13 05:16:46;;;;;;;5.80;4.15;;;4.20;99.90;;;;;;5021211;28;20260;-67
2022/01/13 05:19:20;;;;;;;5.80;4.35;;;4.20;99.90;;;;;;5013373;28;20216;-67
2022/01/13 05:22:15;;;;;;;6.00;4.38;;;4.20;99.90;;;;;;5027536;28;20189;-66
2022/01/13 05:24:46;;;;;;;5.53;4.07;;;4.20;99.90;;;;;;5032078;28;20197;-66
2022/01/13 05:27:14;;;;;;;5.20;4.00;;;4.20;99.90;;;;;;5027181;28;20252;-66
2022/01/13 05:29:42;;;;;;;6.05;3.78;;;4.20;99.90;;;;;;5027587;28;20550;-67
2022/01/13 05:32:11;;;;;;;5.05;3.47;;;4.20;99.90;;;;;;5019597;28;20224;-67
2022/01/13 05:34:40;;;;;;;4.82;3.83;;;4.20;99.90;;;;;;5026732;28;20212;-67
2022/01/13 05:37:11;;;;;;;5.75;3.97;;;4.20;99.90;;;;;;5027247;28;20717;-67
2022/01/13 05:39:40;;;;;;;5.72;4.15;;;4.20;99.90;;;;;;5017637;28;20209;-67
2022/01/13 05:42:08;;;;;;;4.22;3.83;;;4.20;99.90;;;;;;5027456;28;20259;-67
2022/01/13 05:44:38;;;;;;;6.75;3.95;;;4.20;99.90;;;;;;5028203;28;20197;-67
2022/01/13 05:47:11;;;;;;;6.32;4.63;;;4.20;99.90;;;;;;5014350;28;20230;-67
2022/01/13 05:49:42;;;;;;;6.45;3.88;;;4.20;99.90;;;;;;5015607;28;20200;-67
2022/01/13 05:52:12;;;;;;;4.03;3.40;;;4.20;99.90;;;;;;5015824;28;20292;-68
2022/01/13 05:54:41;;;;;;;4.90;3.58;;;4.20;99.90;;;;;;5008155;28;20211;-67
2022/01/13 05:57:09;;;;;;;5.20;3.92;;;4.20;99.90;;;;;;5020167;28;20248;-67
2022/01/13 05:59:37;;;;;;;5.13;3.80;;;4.20;99.90;;;;;;5027793;28;20225;-68
2022/01/13 06:02:06;;;;;;;5.55;3.42;;;4.20;99.90;;;;;;5016914;28;20220;-68
2022/01/13 06:04:34;;;;;;;3.88;3.20;;;4.20;99.90;;;;;;5027446;28;20225;-67
2022/01/13 06:07:04;;;;;;;4.45;3.85;;;4.20;99.90;;;;;;5026546;28;20205;-68
2022/01/13 06:09:32;;;;;;;5.95;4.03;;;4.20;99.90;;;;;;5026212;28;20197;-69
2022/01/13 06:12:02;;;;;;;5.35;3.80;;;4.20;99.90;;;;;;5027377;28;20829;-67
2022/01/13 06:14:30;;;;;;;4.60;3.10;;;4.20;99.90;;;;;;5027107;28;20224;-67
2022/01/13 06:16:59;;;;;;;5.10;3.88;;;4.20;99.90;;;;;;5018944;28;20244;-67
2022/01/13 06:19:27;;;;;;;5.47;4.18;;;4.20;99.90;;;;;;5031719;28;20224;-67
2022/01/13 06:21:55;;;;;;;4.70;3.72;;;4.20;99.90;;;;;;5030712;28;20243;-67
2022/01/13 06:24:25;;;;;;;4.82;4.13;;;4.20;99.90;;;;;;5030470;28;20197;-67
2022/01/13 06:26:53;;;;;;;4.38;3.33;;;4.20;99.90;;;;;;5029950;28;20220;-68
2022/01/13 06:29:21;;;;;;;5.80;3.70;;;4.20;99.90;;;;;;5030135;28;20205;-68
2022/01/13 06:31:49;;;;;;;4.88;3.53;;;4.20;99.90;;;;;;5029421;28;20213;-67
2022/01/13 06:34:17;;;;;;;4.32;3.40;;;4.20;99.90;;;;;;5031038;28;20259;-67
2022/01/13 06:36:45;;;;;;;4.90;3.55;;;4.20;99.90;;;;;;5030623;28;20252;-66
2022/01/13 06:39:13;;;;;;;4.68;3.70;;;4.20;99.90;;;;;;5028609;28;20267;-68
2022/01/13 06:41:46;;;;;;;5.38;4.22;;;4.20;99.90;;;;;;5020078;28;20460;-71
2022/01/13 06:44:14;;;;;;;3.92;3.13;;;4.20;99.90;;;;;;5030988;28;20197;-66
2022/01/13 06:46:42;;;;;;;6.43;4.53;;;4.20;99.90;;;;;;5029664;28;20731;-67
2022/01/13 06:49:11;;;;;;;4.35;3.25;;;4.20;99.90;;;;;;5010891;28;20635;-68
2022/01/13 06:51:39;;;;;;;9.77;3.40;;;4.20;99.90;;;;;;5011063;28;20210;-67
2022/01/13 06:54:07;;;;;;;6.43;4.47;;;4.20;99.90;;;;;;5022544;28;20222;-67
2022/01/13 06:56:37;;;;;;;5.18;3.80;;;4.20;99.90;;;;;;5005696;28;20694;-67
2022/01/13 06:59:10;;;;;;;7.68;4.90;;;4.20;99.90;;;;;;4994646;28;20276;-67
2022/01/13 07:01:39;;;;;;;5.40;4.10;;;4.10;99.90;;;;;;5008354;28;20672;-66
2022/01/13 07:04:09;;;;;;;5.38;3.78;;;4.20;99.90;;;;;;5026451;28;20275;-67
2022/01/13 07:06:37;;;;;;;3.75;3.03;;;4.10;99.90;;;;;;5011622;28;20213;-65
2022/01/13 07:09:07;;;;;;;5.00;3.50;;;4.10;99.90;;;;;;4995286;28;20217;-66
2022/01/13 07:11:36;;;;;;;6.40;3.58;;;4.10;99.90;;;;;;5004598;28;20246;-66
2022/01/13 07:14:05;;;;;;;4.90;3.75;;;4.10;99.90;;;;;;5010234;28;20252;-68
2022/01/13 07:16:34;;;;;;;4.25;3.53;;;4.10;99.90;;;;;;5010069;28;20225;-69
2022/01/13 07:19:03;;;;;;;3.97;2.90;;;4.10;99.90;;;;;;5010696;28;20243;-64
2022/01/13 07:21:32;;;;;;;4.40;3.35;;;4.20;99.90;;;;;;5011214;28;20198;-67
2022/01/13 07:24:00;;;;;;;4.93;3.90;;;4.10;99.90;;;;;;5005643;28;20253;-67
2022/01/13 07:26:28;;;;;;;5.00;4.07;;;4.10;99.90;;;;;;4998161;28;20218;-67
2022/01/13 07:28:56;;;;;;;6.53;3.60;;;4.20;99.90;;;;;;5023762;28;20229;-67
2022/01/13 07:31:27;;;;;;;5.78;4.28;;;4.20;99.90;;;;;;5012715;28;20987;-67
2022/01/13 07:33:56;;;;;;;6.07;4.30;;;4.10;99.90;;;;;;5021819;28;20341;-69
2022/01/13 07:36:24;;;;;;;5.75;4.40;;;4.20;99.90;;;;;;5017130;28;20263;-67
2022/01/13 07:38:52;;;;;;;7.68;4.50;;;4.10;99.90;;;;;;5012656;28;20225;-67
2022/01/13 07:41:21;;;;;;;10.18;6.05;;;4.10;99.90;;;;;;5005742;28;20259;-68
2022/01/13 07:43:53;;;;;;;5.28;3.53;;;4.10;99.90;;;;;;5010175;28;20214;-67
2022/01/13 07:46:23;;;;;;;5.05;4.00;;;4.10;99.90;;;;;;5005502;28;20231;-67
2022/01/13 07:48:53;;;;;;;4.85;3.38;;;4.10;99.90;;;;;;5006562;28;20279;-68
2022/01/13 07:51:22;;;;;;;5.38;4.28;;;4.10;99.90;;;;;;5016429;28;20217;-67
2022/01/13 07:53:50;;;;;;;4.80;3.80;;;4.10;99.90;;;;;;5016744;28;20237;-66
2022/01/13 07:56:18;;;;;;;6.53;4.30;;;4.10;99.90;;;;;;5006744;28;20208;-68
2022/01/13 07:58:47;;;;;;;6.45;5.40;;;4.10;99.90;;;;;;5011481;28;20315;-66
2022/01/13 08:01:15;;;;;;;6.70;4.43;;;4.10;99.90;;;;;;5025865;28;20656;-67
2022/01/13 08:03:43;;;;;;;6.88;4.82;;;4.10;99.90;;;;;;4997629;28;20929;-67
2022/01/13 08:06:12;;;;;;;5.13;3.78;;;4.10;99.90;;;;;;5001147;28;20245;-67
2022/01/13 08:08:41;;;;;;;7.78;5.70;;;4.10;99.90;;;;;;5019158;28;20287;-67
2022/01/13 08:11:10;;;;;;;9.77;5.40;;;4.10;99.90;;;;;;5027487;28;20177;-67
2022/01/13 08:13:38;;;;;;;8.93;4.97;;;4.10;99.90;;;;;;5028611;28;20225;-67
2022/01/13 08:16:09;;;;;;;4.82;4.30;;;4.10;99.90;;;;;;5024413;28;20635;-67
2022/01/13 08:21:25;;;;;;;7.95;5.10;;;4.10;99.90;;;;;;5028877;28;20193;-68
2022/01/13 08:23:54;;;;;;;4.78;4.22;;;4.10;99.90;;;;;;5028420;28;20374;-67
2022/01/13 08:26:22;;;;;;;4.97;3.38;;;4.10;99.90;;;;;;5021107;28;20217;-69
2022/01/13 08:28:50;;;;;;;6.00;4.65;;;4.10;99.90;;;;;;5028469;28;20691;-67
2022/01/13 08:31:18;;;;;;;8.60;5.72;;;4.10;99.90;;;;;;5028540;28;20224;-67
2022/01/13 08:33:46;;;;;;;5.68;4.05;;;4.10;99.90;;;;;;5042701;28;20312;-67
2022/01/13 08:36:14;;;;;;;5.75;4.03;;;4.10;99.90;;;;;;5028784;28;20203;-68
2022/01/13 08:38:43;;;;;;;7.38;4.00;;;4.10;99.90;;;;;;5026575;28;20224;-68
2022/01/13 08:41:11;;;;;;;6.55;4.35;;;4.10;99.90;;;;;;5026836;28;20208;-66
2022/01/13 08:43:40;;;;;;;6.38;4.30;;;4.10;99.90;;;;;;5028033;28;20225;-68
2022/01/13 08:46:11;;;;;;;6.95;3.95;;;4.10;99.90;;;;;;5024189;28;20221;-68
2022/01/13 08:48:39;;;;;;;5.38;3.72;;;4.10;99.90;;;;;;5025367;28;20251;-68
2022/01/13 08:51:07;;;;;;;5.15;3.83;;;4.10;99.90;;;;;;5029279;28;20189;-66
2022/01/13 08:53:37;;;;;;;7.28;4.82;;;4.10;99.90;;;;;;5028410;28;20225;-66
2022/01/13 08:56:06;;;;;;;5.57;4.35;;;4.10;99.90;;;;;;5027461;28;20224;-68
2022/01/13 08:58:35;;;;;;;3.83;3.42;;;4.10;99.90;;;;;;5028548;28;20332;-67
2022/01/13 09:01:03;;;;;;;6.35;4.88;;;4.10;99.90;;;;;;5028353;28;20278;-67
2022/01/13 09:03:31;;;;;;;5.35;3.70;;;4.10;99.90;;;;;;5028699;28;20220;-67
2022/01/13 09:05:59;;;;;;;6.30;4.60;;;4.10;99.90;;;;;;5029644;28;20236;-67
2022/01/13 09:08:27;;;;;;;8.13;5.78;;;4.10;99.90;;;;;;5024605;28;20630;-67
2022/01/13 09:10:56;;;;;;;6.18;3.60;;;4.10;99.90;;;;;;5019699;28;20228;-67
2022/01/13 09:13:26;;;;;;;8.95;5.90;;;4.10;99.90;;;;;;5027849;28;20240;-66
2022/01/13 09:15:59;;;;;;;7.75;6.03;;;4.10;99.90;;;;;;5025821;28;20266;-67
2022/01/13 09:18:32;;;;;;;7.70;6.03;;;4.10;99.90;;;;;;5026776;28;20216;-66
2022/01/13 09:21:04;;;;;;;5.13;4.40;;;4.10;99.90;;;;;;5028172;28;20193;-67
2022/01/13 09:23:36;;;;;;;8.38;4.63;;;4.10;99.90;;;;;;5026553;28;20760;-66
2022/01/13 09:26:05;;;;;;;7.13;4.68;;;4.10;99.90;;;;;;5027210;28;20216;-67
2022/01/13 09:28:34;;;;;;;8.38;6.38;;;4.10;99.90;;;;;;5027429;28;20263;-68
2022/01/13 09:31:03;;;;;;;5.80;4.95;;;4.10;99.90;;;;;;5024942;28;20272;-67
2022/01/13 09:33:31;;;;;;;11.13;7.32;;;4.10;99.90;;;;;;5024062;28;20225;-66
2022/01/13 09:35:59;;;;;;;6.35;4.88;;;4.10;99.90;;;;;;5019971;28;20209;-67
2022/01/13 09:38:28;;;;;;;20.95;11.40;;;4.10;99.90;;;;;;5027681;28;20698;-65
2022/01/13 09:40:57;;;;;;;15.98;11.70;;;4.10;99.90;;;;;;5025793;28;20446;-68
2022/01/13 09:43:27;;;;;;;20.60;11.52;;;4.10;99.90;;;;;;5027801;28;20220;-65
2022/01/13 09:45:58;;;;;;;16.13;10.10;;;4.10;99.90;;;;;;5025786;28;20312;-66
2022/01/13 09:48:28;;;;;;;16.63;10.63;;;4.10;99.90;;;;;;5027117;28;20209;-67
2022/01/13 09:50:56;;;;;;;16.50;11.35;;;4.10;99.90;;;;;;5028138;28;20205;-68
2022/01/13 09:53:24;;;;;;;14.65;10.57;;;4.10;99.90;;;;;;5027173;28;20275;-66
2022/01/13 09:55:53;;;;;;;13.50;8.32;;;4.10;99.90;;;;;;5026545;28;20722;-67
2022/01/13 09:58:21;;;;;;;16.85;10.70;;;4.10;99.90;;;;;;5027067;28;20304;-67
2022/01/13 10:00:49;;;;;;;14.77;10.18;;;4.10;99.90;;;;;;5026174;28;20283;-66
2022/01/13 10:03:23;;;;;;;15.50;9.52;;;4.10;99.90;;;;;;5020888;28;20719;-68
2022/01/13 10:05:52;;;;;;;11.15;8.93;;;4.10;99.90;;;;;;5026011;28;20221;-66
2022/01/13 10:08:22;;;;;;;19.23;11.57;;;4.10;99.90;;;;;;5026901;28;20217;-67
2022/01/13 10:10:50;;;;;;;20.70;11.02;;;4.10;99.90;;;;;;5024608;28;20224;-69
2022/01/13 10:13:33;;;;;;;20.48;10.65;;;4.20;99.90;;;;;;5020706;28;20698;-68
2022/01/13 10:18:48;;;;;;;17.55;10.75;;;4.20;99.90;;;;;;5027146;28;20213;-66
2022/01/13 10:21:19;;;;;;;17.77;10.40;;;4.20;99.90;;;;;;5028383;28;20197;-67
2022/01/13 10:24:06;;;;;;;17.85;10.27;;;4.20;99.90;;;;;;5027543;28;20247;-67
2022/01/13 10:26:35;;;;;;;14.57;8.85;;;4.20;99.90;;;;;;5027731;28;20703;-68
2022/01/13 10:29:07;;;;;;;17.35;11.52;;;4.20;99.90;;;;;;5026853;28;20256;-66
2022/01/13 10:31:47;;;;;;;13.98;10.07;;;4.20;99.90;;;;;;5023633;28;20193;-68
2022/01/13 10:34:23;;;;;;;19.80;10.45;;;4.20;99.90;;;;;;5027125;28;20228;-67
2022/01/13 10:37:02;;;;;;;17.92;10.85;;;4.20;99.90;;;;;;5025984;28;20728;-69
2022/01/13 10:39:56;;;;;;;14.05;9.15;;;4.20;99.90;;;;;;5026957;28;20197;-68
2022/01/13 10:45:30;;;;;;;17.02;9.60;;;4.20;99.90;;;;;;5027285;28;20200;-68
2022/01/13 10:48:02;;;;;;;22.48;9.45;;;4.20;99.90;;;;;;5015702;28;20220;-67
2022/01/13 10:50:33;;;;;;;17.00;8.55;;;4.20;99.90;;;;;;5027700;28;20216;-68
2022/01/13 10:53:04;;;;;;;17.50;9.23;;;4.20;99.90;;;;;;5027340;28;20287;-66
2022/01/13 10:55:37;;;;;;;14.18;8.32;;;4.20;99.90;;;;;;5025694;28;20248;-67
2022/01/13 10:58:12;;;;;;;15.13;8.50;;;4.20;99.90;;;;;;5026582;28;20221;-67
2022/01/13 11:00:41;;;;;;;12.02;8.10;;;4.20;99.90;;;;;;5026202;28;20742;-68
2022/01/13 11:03:12;;;;;;;14.57;8.63;;;4.20;99.90;;;;;;5021952;28;20304;-67
2022/01/13 11:05:45;;;;;;;18.58;8.70;;;4.20;99.90;;;;;;5029987;28;20778;-67
2022/01/13 11:08:21;;;;;;;14.25;10.02;;;4.20;99.90;;;;;;5022369;28;20272;-67
2022/01/13 11:10:51;;;;;;;12.80;9.23;;;4.20;99.90;;;;;;5023571;28;20224;-66
2022/01/13 11:13:21;;;;;;;10.35;7.78;;;4.20;99.90;;;;;;5015976;28;20263;-68
2022/01/13 11:15:53;;;;;;;12.80;8.75;;;4.20;99.90;;;;;;5029086;28;20272;-68
2022/01/13 11:18:22;;;;;;;12.55;8.32;;;4.20;99.90;;;;;;5016378;28;20213;-68
2022/01/13 11:20:52;;;;;;;13.40;7.90;;;4.20;99.90;;;;;;5030298;28;20276;-67
2022/01/13 11:23:21;;;;;;;10.43;7.95;;;4.20;99.90;;;;;;5029006;28;20212;-67
2022/01/13 11:25:52;;;;;;;10.80;7.20;;;4.20;99.90;;;;;;5028425;28;20212;-66
2022/01/13 11:28:23;;;;;;;14.80;7.72;;;4.20;99.90;;;;;;5029446;28;20217;-67
2022/01/13 11:30:51;;;;;;;14.90;8.93;;;4.20;99.90;;;;;;5028765;28;20877;-67
2022/01/13 11:33:22;;;;;;;13.57;7.90;;;4.20;99.90;;;;;;5023774;28;20590;-65
2022/01/13 11:35:57;;;;;;;12.48;7.82;;;4.20;99.90;;;;;;5029950;28;20224;-68
2022/01/13 11:38:27;;;;;;;12.55;7.93;;;4.20;99.90;;;;;;5027563;28;20225;-69
2022/01/13 11:41:00;;;;;;;12.48;8.02;;;4.20;99.90;;;;;;5023150;28;20230;-67
2022/01/13 11:43:31;;;;;;;10.25;7.43;;;4.20;99.90;;;;;;5029366;28;20260;-67
2022/01/13 11:46:15;;;;;;;12.85;6.90;;;4.20;99.90;;;;;;5027441;28;20913;-68
2022/01/13 11:49:03;;;;;;;11.10;7.55;;;4.20;99.90;;;;;;5017463;28;20228;-66
2022/01/13 11:51:44;;;;;;;14.57;7.20;;;4.20;99.90;;;;;;5017359;28;20208;-67
2022/01/13 11:54:26;;;;;;;9.45;6.32;;;4.20;99.90;;;;;;5029007;28;20224;-66
2022/01/13 11:57:19;;;;;;;8.70;5.78;;;4.20;99.90;;;;;;5027264;28;20650;-68
2022/01/13 12:00:25;;;;;;;8.57;6.93;;;4.20;99.90;;;;;;5029277;28;20217;-65
2022/01/13 12:02:54;;;;;;;12.13;7.78;;;4.20;99.90;;;;;;5019672;28;20225;-66
2022/01/13 12:05:25;;;;;;;11.82;7.43;;;4.20;99.90;;;;;;5029344;28;20193;-66
2022/01/13 12:07:56;;;;;;;11.45;7.40;;;4.20;99.90;;;;;;5028946;28;20224;-67
2022/01/13 12:10:51;;;;;;;9.73;7.20;;;4.20;99.90;;;;;;5029061;28;20309;-67
2022/01/13 12:13:49;;;;;;;8.10;6.95;;;4.20;99.90;;;;;;5022425;28;20221;-67
2022/01/13 12:16:17;;;;;;;11.45;7.15;;;4.20;99.90;;;;;;4970764;28;20230;-67
2022/01/13 12:19:05;;;;;;;9.48;6.95;;;4.20;99.90;;;;;;5025974;28;20217;-67
2022/01/13 12:21:39;;;;;;;10.85;7.60;;;4.20;99.90;;;;;;5026484;28;20205;-67
2022/01/13 12:24:12;;;;;;;9.25;6.63;;;4.20;99.90;;;;;;5028163;28;20244;-67
2022/01/13 12:26:49;;;;;;;9.80;6.63;;;4.30;99.90;;;;;;5017566;28;20232;-67
2022/01/13 12:29:20;;;;;;;10.15;7.45;;;4.30;99.90;;;;;;5028102;28;20287;-67
2022/01/13 12:31:50;;;;;;;9.32;7.68;;;4.30;99.90;;;;;;5027715;28;20247;-67
2022/01/13 12:34:24;;;;;;;11.23;7.20;;;4.20;99.90;;;;;;5027308;28;20208;-67
2022/01/13 12:36:52;;;;;;;8.68;6.65;;;4.30;99.90;;;;;;5019409;28;20275;-66
2022/01/13 12:39:22;;;;;;;8.18;6.53;;;4.30;99.90;;;;;;5021470;28;20228;-66
2022/01/13 12:42:00;;;;;;;10.88;8.15;;;4.30;99.90;;;;;;5023018;28;20202;-66
2022/01/13 12:47:14;;;;;;;8.93;6.85;;;4.30;99.90;;;;;;4989759;28;20236;-68
2022/01/13 12:49:51;;;;;;;11.52;7.65;;;4.30;99.90;;;;;;5009720;28;20194;-66
2022/01/13 12:52:21;;;;;;;13.75;8.07;;;4.30;99.90;;;;;;5008934;28;20226;-69
2022/01/13 12:54:51;;;;;;;7.82;6.25;;;4.30;99.90;;;;;;5009631;28;20288;-67
2022/01/13 12:57:22;;;;;;;11.60;7.05;;;4.30;99.90;;;;;;5008913;28;20229;-68
2022/01/13 12:59:55;;;;;;;10.15;7.40;;;4.30;99.90;;;;;;5009088;28;20186;-67
2022/01/13 13:02:23;;;;;;;7.10;6.15;;;4.30;99.90;;;;;;5008553;28;20214;-68
2022/01/13 13:04:51;;;;;;;10.20;7.70;;;4.30;99.90;;;;;;5008754;28;20236;-66
2022/01/13 13:07:20;;;;;;;10.50;6.75;;;4.30;99.90;;;;;;5011487;28;20758;-67
2022/01/13 13:09:51;;;;;;;8.23;6.95;;;4.30;99.90;;;;;;5023498;28;20237;-67
2022/01/13 13:12:26;;;;;;;9.32;6.72;;;4.30;99.90;;;;;;5008655;28;20313;-67
2022/01/13 13:17:41;;;;;;;7.95;7.07;;;4.30;99.90;;;;;;5022444;28;20229;-67
2022/01/13 13:20:23;;;;;;;9.07;6.30;;;4.30;99.90;;;;;;5028853;28;20189;-67
2022/01/13 13:22:54;;;;;;;9.27;7.05;;;4.30;99.90;;;;;;5028126;28;20295;-67
2022/01/13 13:25:31;;;;;;;8.27;6.05;;;4.30;99.90;;;;;;5019350;28;20194;-67
2022/01/13 13:28:20;;;;;;;6.38;5.63;;;4.30;99.90;;;;;;5008096;28;20253;-66
2022/01/13 13:30:50;;;;;;;8.73;6.55;;;4.30;99.90;;;;;;5007989;28;20186;-66
2022/01/13 13:33:45;;;;;;;10.57;6.90;;;4.30;99.90;;;;;;5009094;28;20770;-67
2022/01/13 13:36:16;;;;;;;7.22;5.10;;;4.30;99.90;;;;;;5009193;28;20233;-68